sensor_id;sensor_type;location;lat;lon;timestamp;pressure;altitude;pressure_sealevel;temperature;humidity
63552;BME280;49698;48.072;7.800;2022-08-21T00:01:05;99544.44;;;16.60;85.98
63552;BME280;49698;48.072;7.800;2022-08-21T00:03:34;99545.88;;;16.58;86.07
63552;BME280;49698;48.072;7.800;2022-08-21T00:06:02;99538.84;;;16.57;86.05
63552;BME280;49698;48.072;7.800;2022-08-21T00:08:32;99541.56;;;16.57;85.93
63552;BME280;49698;48.072;7.800;2022-08-21T00:11:00;99544.28;;;16.57;86.01
63552;BME280;49698;48.072;7.800;2022-08-21T00:13:28;99551.31;;;16.58;85.83
63552;BME280;49698;48.072;7.800;2022-08-21T00:15:58;99543.97;;;16.58;85.79
63552;BME280;49698;48.072;7.800;2022-08-21T00:18:26;99529.59;;;16.58;85.71
63552;BME280;49698;48.072;7.800;2022-08-21T00:20:54;99539.34;;;16.59;85.73
63552;BME280;49698;48.072;7.800;2022-08-21T00:23:22;99545.22;;;16.61;85.55
63552;BME280;49698;48.072;7.800;2022-08-21T00:25:52;99536.44;;;16.64;85.60
63552;BME280;49698;48.072;7.800;2022-08-21T00:28:19;99535.34;;;16.65;85.42
63552;BME280;49698;48.072;7.800;2022-08-21T00:30:47;99532.94;;;16.63;85.50
63552;BME280;49698;48.072;7.800;2022-08-21T00:33:15;99536.44;;;16.64;85.24
63552;BME280;49698;48.072;7.800;2022-08-21T00:35:43;99535.19;;;16.61;85.26
63552;BME280;49698;48.072;7.800;2022-08-21T00:38:11;99531.66;;;16.61;85.21
63552;BME280;49698;48.072;7.800;2022-08-21T00:40:45;99521.94;;;16.60;84.94
63552;BME280;49698;48.072;7.800;2022-08-21T00:43:18;99527.34;;;16.60;85.00
63552;BME280;49698;48.072;7.800;2022-08-21T00:45:47;99518.41;;;16.59;85.01
63552;BME280;49698;48.072;7.800;2022-08-21T00:48:16;99517.28;;;16.60;84.69
63552;BME280;49698;48.072;7.800;2022-08-21T00:50:48;99523.50;;;16.61;84.42
63552;BME280;49698;48.072;7.800;2022-08-21T00:53:17;99527.06;;;16.61;84.36
63552;BME280;49698;48.072;7.800;2022-08-21T00:55:45;99517.28;;;16.60;84.12
63552;BME280;49698;48.072;7.800;2022-08-21T00:58:16;99523.06;;;16.59;84.25
63552;BME280;49698;48.072;7.800;2022-08-21T01:00:51;99522.56;;;16.57;84.09
63552;BME280;49698;48.072;7.800;2022-08-21T01:03:23;99513.94;;;16.55;84.27
63552;BME280;49698;48.072;7.800;2022-08-21T01:05:52;99516.50;;;16.51;84.32
63552;BME280;49698;48.072;7.800;2022-08-21T01:08:21;99515.72;;;16.51;84.47
63552;BME280;49698;48.072;7.800;2022-08-21T01:10:50;99517.13;;;16.48;84.51
63552;BME280;49698;48.072;7.800;2022-08-21T01:13:27;99512.66;;;16.44;84.81
63552;BME280;49698;48.072;7.800;2022-08-21T01:15:59;99521.78;;;16.39;85.02
63552;BME280;49698;48.072;7.800;2022-08-21T01:18:28;99522.72;;;16.34;84.94
63552;BME280;49698;48.072;7.800;2022-08-21T01:21:07;99524.47;;;16.30;85.12
63552;BME280;49698;48.072;7.800;2022-08-21T01:23:35;99524.47;;;16.30;85.09
63552;BME280;49698;48.072;7.800;2022-08-21T01:26:05;99522.88;;;16.29;85.21
63552;BME280;49698;48.072;7.800;2022-08-21T01:28:37;99527.34;;;16.25;85.54
63552;BME280;49698;48.072;7.800;2022-08-21T01:31:07;99524.44;;;16.22;85.49
63552;BME280;49698;48.072;7.800;2022-08-21T01:33:36;99513.13;;;16.20;85.34
63552;BME280;49698;48.072;7.800;2022-08-21T01:36:06;99513.94;;;16.20;85.31
63552;BME280;49698;48.072;7.800;2022-08-21T01:38:34;99513.13;;;16.20;85.27
63552;BME280;49698;48.072;7.800;2022-08-21T01:41:02;99514.56;;;16.17;85.42
63552;BME280;49698;48.072;7.800;2022-08-21T01:43:30;99510.41;;;16.11;85.70
63552;BME280;49698;48.072;7.800;2022-08-21T01:45:58;99504.84;;;16.07;85.85
63552;BME280;49698;48.072;7.800;2022-08-21T01:48:26;99512.00;;;16.03;85.96
63552;BME280;49698;48.072;7.800;2022-08-21T01:50:54;99519.47;;;15.98;86.00
63552;BME280;49698;48.072;7.800;2022-08-21T01:53:24;99510.03;;;15.95;86.11
63552;BME280;49698;48.072;7.800;2022-08-21T01:55:51;99513.41;;;15.92;86.16
63552;BME280;49698;48.072;7.800;2022-08-21T01:58:20;99505.56;;;15.90;86.02
63552;BME280;49698;48.072;7.800;2022-08-21T02:01:02;99500.16;;;15.90;85.75
63552;BME280;49698;48.072;7.800;2022-08-21T02:04:02;99498.88;;;15.88;85.94
63552;BME280;49698;48.072;7.800;2022-08-21T02:06:30;99499.81;;;15.83;85.94
63552;BME280;49698;48.072;7.800;2022-08-21T02:09:00;99503.47;;;15.79;85.95
63552;BME280;49698;48.072;7.800;2022-08-21T02:11:28;99498.66;;;15.76;86.18
63552;BME280;49698;48.072;7.800;2022-08-21T02:13:55;99498.53;;;15.72;86.31
63552;BME280;49698;48.072;7.800;2022-08-21T02:16:24;99499.94;;;15.70;86.40
63552;BME280;49698;48.072;7.800;2022-08-21T02:18:52;99501.38;;;15.67;86.14
63552;BME280;49698;48.072;7.800;2022-08-21T02:21:20;99493.81;;;15.64;86.35
63552;BME280;49698;48.072;7.800;2022-08-21T02:23:48;99496.84;;;15.62;86.53
63552;BME280;49698;48.072;7.800;2022-08-21T02:26:17;99494.78;;;15.59;86.20
63552;BME280;49698;48.072;7.800;2022-08-21T02:28:45;99498.44;;;15.55;86.29
63552;BME280;49698;48.072;7.800;2022-08-21T02:31:13;99492.53;;;15.53;86.25
63552;BME280;49698;48.072;7.800;2022-08-21T02:33:41;99493.63;;;15.52;86.39
63552;BME280;49698;48.072;7.800;2022-08-21T02:36:10;99489.66;;;15.49;86.16
63552;BME280;49698;48.072;7.800;2022-08-21T02:38:40;99488.81;;;15.49;86.28
63552;BME280;49698;48.072;7.800;2022-08-21T02:41:11;99492.66;;;15.48;86.57
63552;BME280;49698;48.072;7.800;2022-08-21T02:43:41;99489.47;;;15.46;86.31
63552;BME280;49698;48.072;7.800;2022-08-21T02:46:10;99493.28;;;15.45;86.31
63552;BME280;49698;48.072;7.800;2022-08-21T02:48:39;99488.19;;;15.43;86.53
63552;BME280;49698;48.072;7.800;2022-08-21T02:51:09;99482.28;;;15.41;86.69
63552;BME280;49698;48.072;7.800;2022-08-21T02:53:38;99485.28;;;15.39;86.45
63552;BME280;49698;48.072;7.800;2022-08-21T02:56:08;99485.13;;;15.36;86.74
63552;BME280;49698;48.072;7.800;2022-08-21T02:58:41;99488.78;;;15.31;87.14
63552;BME280;49698;48.072;7.800;2022-08-21T03:01:10;99476.97;;;15.27;87.37
63552;BME280;49698;48.072;7.800;2022-08-21T03:03:41;99479.81;;;15.22;87.20
63552;BME280;49698;48.072;7.800;2022-08-21T03:06:11;99469.59;;;15.19;87.52
63552;BME280;49698;48.072;7.800;2022-08-21T03:08:40;99472.94;;;15.16;87.55
63552;BME280;49698;48.072;7.800;2022-08-21T03:11:08;99481.66;;;15.13;87.83
63552;BME280;49698;48.072;7.800;2022-08-21T03:13:36;99476.88;;;15.10;87.92
63552;BME280;49698;48.072;7.800;2022-08-21T03:16:07;99484.50;;;15.08;88.05
63552;BME280;49698;48.072;7.800;2022-08-21T03:18:35;99480.50;;;15.05;88.03
63552;BME280;49698;48.072;7.800;2022-08-21T03:21:03;99480.84;;;15.04;88.14
63552;BME280;49698;48.072;7.800;2022-08-21T03:23:32;99485.75;;;15.02;88.21
63552;BME280;49698;48.072;7.800;2022-08-21T03:26:00;99488.78;;;15.00;87.93
63552;BME280;49698;48.072;7.800;2022-08-21T03:28:28;99486.38;;;14.99;87.98
63552;BME280;49698;48.072;7.800;2022-08-21T03:30:56;99485.56;;;14.98;87.96
63552;BME280;49698;48.072;7.800;2022-08-21T03:33:25;99482.69;;;14.95;87.75
63552;BME280;49698;48.072;7.800;2022-08-21T03:35:57;99481.41;;;14.92;87.83
63552;BME280;49698;48.072;7.800;2022-08-21T03:38:29;99479.91;;;14.86;87.98
63552;BME280;49698;48.072;7.800;2022-08-21T03:40:57;99475.63;;;14.85;88.17
63552;BME280;49698;48.072;7.800;2022-08-21T03:43:25;99479.72;;;14.82;88.08
63552;BME280;49698;48.072;7.800;2022-08-21T03:45:54;99476.06;;;14.78;87.88
63552;BME280;49698;48.072;7.800;2022-08-21T03:48:22;99482.09;;;14.75;87.78
63552;BME280;49698;48.072;7.800;2022-08-21T03:50:52;99475.69;;;14.71;88.00
63552;BME280;49698;48.072;7.800;2022-08-21T03:53:20;99475.19;;;14.69;88.13
63552;BME280;49698;48.072;7.800;2022-08-21T03:55:50;99472.81;;;14.67;87.93
63552;BME280;49698;48.072;7.800;2022-08-21T03:58:21;99475.81;;;14.66;87.93
63552;BME280;49698;48.072;7.800;2022-08-21T04:00:52;99478.34;;;14.62;88.23
63552;BME280;49698;48.072;7.800;2022-08-21T04:03:21;99478.16;;;14.59;88.21
63552;BME280;49698;48.072;7.800;2022-08-21T04:05:50;99481.97;;;14.58;88.47
63552;BME280;49698;48.072;7.800;2022-08-21T04:08:19;99484.16;;;14.56;88.39
63552;BME280;49698;48.072;7.800;2022-08-21T04:10:50;99482.88;;;14.53;88.46
63552;BME280;49698;48.072;7.800;2022-08-21T04:13:19;99485.88;;;14.52;88.66
63552;BME280;49698;48.072;7.800;2022-08-21T04:15:47;99483.78;;;14.49;88.69
63552;BME280;49698;48.072;7.800;2022-08-21T04:18:16;99489.19;;;14.49;88.55
63552;BME280;49698;48.072;7.800;2022-08-21T04:20:45;99489.19;;;14.49;88.74
63552;BME280;49698;48.072;7.800;2022-08-21T04:23:13;99491.91;;;14.49;88.43
63552;BME280;49698;48.072;7.800;2022-08-21T04:25:43;99496.00;;;14.46;88.47
63552;BME280;49698;48.072;7.800;2022-08-21T04:28:11;99496.59;;;14.43;88.56
63552;BME280;49698;48.072;7.800;2022-08-21T04:30:39;99499.63;;;14.41;88.76
63552;BME280;49698;48.072;7.800;2022-08-21T04:33:07;99495.81;;;14.42;88.70
63552;BME280;49698;48.072;7.800;2022-08-21T04:35:35;99503.59;;;14.44;88.61
63552;BME280;49698;48.072;7.800;2022-08-21T04:38:03;99506.03;;;14.46;88.65
63552;BME280;49698;48.072;7.800;2022-08-21T04:40:31;99511.44;;;14.46;88.60
63552;BME280;49698;48.072;7.800;2022-08-21T04:43:03;99505.72;;;14.47;88.45
63552;BME280;49698;48.072;7.800;2022-08-21T04:45:34;99513.81;;;14.47;88.67
63552;BME280;49698;48.072;7.800;2022-08-21T04:48:06;99513.25;;;14.50;88.34
63552;BME280;49698;48.072;7.800;2022-08-21T04:50:40;99514.75;;;14.56;88.25
63552;BME280;49698;48.072;7.800;2022-08-21T04:53:16;99512.69;;;14.62;87.98
63552;BME280;49698;48.072;7.800;2022-08-21T04:55:46;99512.56;;;14.67;87.89
63552;BME280;49698;48.072;7.800;2022-08-21T04:58:17;99504.34;;;14.72;87.56
63552;BME280;49698;48.072;7.800;2022-08-21T05:00:47;99503.44;;;14.77;87.38
63552;BME280;49698;48.072;7.800;2022-08-21T05:03:16;99512.53;;;14.81;87.49
63552;BME280;49698;48.072;7.800;2022-08-21T05:05:45;99515.09;;;14.86;87.02
63552;BME280;49698;48.072;7.800;2022-08-21T05:08:15;99522.28;;;14.90;86.88
63552;BME280;49698;48.072;7.800;2022-08-21T05:10:46;99523.31;;;14.95;86.76
63552;BME280;49698;48.072;7.800;2022-08-21T05:13:16;99524.88;;;14.96;86.41
63552;BME280;49698;48.072;7.800;2022-08-21T05:15:44;99528.88;;;14.98;86.50
63552;BME280;49698;48.072;7.800;2022-08-21T05:18:12;99530.66;;;15.03;86.52
63552;BME280;49698;48.072;7.800;2022-08-21T05:20:40;99528.16;;;15.06;86.39
63552;BME280;49698;48.072;7.800;2022-08-21T05:23:10;99527.22;;;15.11;86.22
63552;BME280;49698;48.072;7.800;2022-08-21T05:25:38;99526.28;;;15.15;86.05
63552;BME280;49698;48.072;7.800;2022-08-21T05:28:06;99532.34;;;15.21;86.04
63552;BME280;49698;48.072;7.800;2022-08-21T05:30:36;99527.91;;;15.25;85.62
63552;BME280;49698;48.072;7.800;2022-08-21T05:33:06;99531.59;;;15.29;85.32
63552;BME280;49698;48.072;7.800;2022-08-21T05:35:35;99526.06;;;15.34;85.23
63552;BME280;49698;48.072;7.800;2022-08-21T05:38:04;99522.25;;;15.35;85.33
63552;BME280;49698;48.072;7.800;2022-08-21T05:40:32;99523.22;;;15.39;85.36
63552;BME280;49698;48.072;7.800;2022-08-21T05:43:00;99521.81;;;15.42;85.17
63552;BME280;49698;48.072;7.800;2022-08-21T05:45:31;99512.56;;;15.43;85.20
63552;BME280;49698;48.072;7.800;2022-08-21T05:48:06;99516.06;;;15.44;85.38
63552;BME280;49698;48.072;7.800;2022-08-21T05:50:35;99513.53;;;15.47;85.11
63552;BME280;49698;48.072;7.800;2022-08-21T05:53:04;99515.31;;;15.52;84.98
63552;BME280;49698;48.072;7.800;2022-08-21T05:55:32;99519.16;;;15.59;84.46
63552;BME280;49698;48.072;7.800;2022-08-21T05:58:01;99523.03;;;15.67;84.28
63552;BME280;49698;48.072;7.800;2022-08-21T06:00:29;99523.22;;;15.71;83.88
63552;BME280;49698;48.072;7.800;2022-08-21T06:02:57;99515.75;;;15.76;83.65
63552;BME280;49698;48.072;7.800;2022-08-21T06:05:27;99522.16;;;15.80;83.65
63552;BME280;49698;48.072;7.800;2022-08-21T06:07:55;99524.53;;;15.82;83.76
63552;BME280;49698;48.072;7.800;2022-08-21T06:10:23;99523.72;;;15.81;83.68
63552;BME280;49698;48.072;7.800;2022-08-21T06:12:53;99514.47;;;15.82;83.63
63552;BME280;49698;48.072;7.800;2022-08-21T06:15:22;99522.78;;;15.86;83.32
63552;BME280;49698;48.072;7.800;2022-08-21T06:17:50;99511.66;;;15.87;83.24
63552;BME280;49698;48.072;7.800;2022-08-21T06:20:18;99518.03;;;15.92;83.08
63552;BME280;49698;48.072;7.800;2022-08-21T06:22:47;99513.56;;;15.96;82.78
63552;BME280;49698;48.072;7.800;2022-08-21T06:25:16;99514.84;;;15.98;82.67
63552;BME280;49698;48.072;7.800;2022-08-21T06:27:44;99509.13;;;16.00;82.34
63552;BME280;49698;48.072;7.800;2022-08-21T06:30:12;99516.13;;;16.01;82.29
63552;BME280;49698;48.072;7.800;2022-08-21T06:32:40;99523.13;;;16.02;82.14
63552;BME280;49698;48.072;7.800;2022-08-21T06:35:09;99517.09;;;16.05;82.24
63552;BME280;49698;48.072;7.800;2022-08-21T06:37:38;99517.09;;;16.05;82.35
63552;BME280;49698;48.072;7.800;2022-08-21T06:40:08;99515.03;;;16.10;82.08
63552;BME280;49698;48.072;7.800;2022-08-21T06:42:36;99514.09;;;16.15;81.73
63552;BME280;49698;48.072;7.800;2022-08-21T06:45:05;99518.72;;;16.23;81.46
63552;BME280;49698;48.072;7.800;2022-08-21T06:47:33;99517.44;;;16.29;80.96
63552;BME280;49698;48.072;7.800;2022-08-21T06:50:01;99518.56;;;16.37;80.81
63552;BME280;49698;48.072;7.800;2022-08-21T06:52:30;99517.31;;;16.43;80.47
63552;BME280;49698;48.072;7.800;2022-08-21T06:54:58;99516.00;;;16.49;80.15
63552;BME280;49698;48.072;7.800;2022-08-21T06:57:28;99512.81;;;16.56;80.14
63552;BME280;49698;48.072;7.800;2022-08-21T06:59:56;99513.66;;;16.65;79.66
63552;BME280;49698;48.072;7.800;2022-08-21T07:02:24;99517.16;;;16.74;79.31
63552;BME280;49698;48.072;7.800;2022-08-21T07:04:52;99517.94;;;16.83;78.80
63552;BME280;49698;48.072;7.800;2022-08-21T07:07:20;99518.75;;;16.93;78.16
63552;BME280;49698;48.072;7.800;2022-08-21T07:09:48;99517.59;;;17.02;77.52
63552;BME280;49698;48.072;7.800;2022-08-21T07:12:16;99525.09;;;17.14;76.92
63552;BME280;49698;48.072;7.800;2022-08-21T07:14:45;99517.22;;;17.30;76.29
63552;BME280;49698;48.072;7.800;2022-08-21T07:17:13;99515.56;;;17.46;75.73
63552;BME280;49698;48.072;7.800;2022-08-21T07:19:51;99514.91;;;17.58;75.19
63552;BME280;49698;48.072;7.800;2022-08-21T07:22:33;99515.00;;;17.70;74.92
63552;BME280;49698;48.072;7.800;2022-08-21T07:25:03;99513.03;;;17.79;74.87
63552;BME280;49698;48.072;7.800;2022-08-21T07:27:31;99507.38;;;17.93;74.57
63552;BME280;49698;48.072;7.800;2022-08-21T07:30:01;99515.13;;;18.12;74.20
63552;BME280;49698;48.072;7.800;2022-08-21T07:32:29;99513.53;;;18.32;73.55
63552;BME280;49698;48.072;7.800;2022-08-21T07:34:57;99511.44;;;18.50;72.83
63552;BME280;49698;48.072;7.800;2022-08-21T07:37:26;99506.84;;;18.71;72.21
63552;BME280;49698;48.072;7.800;2022-08-21T07:39:54;99508.47;;;18.85;71.72
63552;BME280;49698;48.072;7.800;2022-08-21T07:42:23;99509.19;;;18.94;71.70
63552;BME280;49698;48.072;7.800;2022-08-21T07:44:50;99509.22;;;19.06;71.13
63552;BME280;49698;48.072;7.800;2022-08-21T07:47:20;99504.94;;;19.17;70.39
63552;BME280;49698;48.072;7.800;2022-08-21T07:49:48;99507.69;;;19.29;69.83
63552;BME280;49698;48.072;7.800;2022-08-21T07:52:16;99504.06;;;19.50;69.03
63552;BME280;49698;48.072;7.800;2022-08-21T07:54:44;99499.78;;;19.73;68.22
63552;BME280;49698;48.072;7.800;2022-08-21T07:57:12;99502.28;;;19.91;67.68
63552;BME280;49698;48.072;7.800;2022-08-21T07:59:40;99497.72;;;20.07;67.36
63552;BME280;49698;48.072;7.800;2022-08-21T08:02:08;99497.69;;;20.19;67.03
63552;BME280;49698;48.072;7.800;2022-08-21T08:04:37;99499.94;;;20.30;66.45
63552;BME280;49698;48.072;7.800;2022-08-21T08:07:05;99496.03;;;20.43;66.06
63552;BME280;49698;48.072;7.800;2022-08-21T08:09:34;99491.44;;;20.59;65.43
63552;BME280;49698;48.072;7.800;2022-08-21T08:12:03;99494.13;;;20.71;64.73
63552;BME280;49698;48.072;7.800;2022-08-21T08:14:31;99484.19;;;20.79;64.25
63552;BME280;49698;48.072;7.800;2022-08-21T08:17:00;99483.09;;;20.96;63.61
63552;BME280;49698;48.072;7.800;2022-08-21T08:19:29;99478.19;;;21.17;62.76
63552;BME280;49698;48.072;7.800;2022-08-21T08:21:58;99472.03;;;21.36;61.81
63552;BME280;49698;48.072;7.800;2022-08-21T08:24:26;99476.53;;;21.44;61.27
63552;BME280;49698;48.072;7.800;2022-08-21T08:26:54;99475.81;;;21.63;60.83
63552;BME280;49698;48.072;7.800;2022-08-21T08:29:23;99470.22;;;21.76;60.25
63552;BME280;49698;48.072;7.800;2022-08-21T08:31:51;99471.84;;;21.77;59.99
63552;BME280;49698;48.072;7.800;2022-08-21T08:34:19;99468.03;;;21.81;59.99
63552;BME280;49698;48.072;7.800;2022-08-21T08:36:50;99468.00;;;21.97;59.56
63552;BME280;49698;48.072;7.800;2022-08-21T08:39:20;99462.13;;;22.14;59.33
63552;BME280;49698;48.072;7.800;2022-08-21T08:41:48;99471.38;;;22.26;58.83
63552;BME280;49698;48.072;7.800;2022-08-21T08:44:17;99466.56;;;22.38;58.15
63552;BME280;49698;48.072;7.800;2022-08-21T08:46:47;99461.44;;;22.56;57.46
63552;BME280;49698;48.072;7.800;2022-08-21T08:49:19;99457.50;;;22.77;56.81
63552;BME280;49698;48.072;7.800;2022-08-21T08:51:52;99443.94;;;22.84;56.59
63552;BME280;49698;48.072;7.800;2022-08-21T08:54:28;99453.75;;;22.85;56.71
63552;BME280;49698;48.072;7.800;2022-08-21T08:56:58;99451.16;;;22.92;56.78
63552;BME280;49698;48.072;7.800;2022-08-21T08:59:35;99442.34;;;23.02;56.70
63552;BME280;49698;48.072;7.800;2022-08-21T09:02:04;99443.19;;;23.06;56.60
63552;BME280;49698;48.072;7.800;2022-08-21T09:04:33;99445.53;;;23.04;56.55
63552;BME280;49698;48.072;7.800;2022-08-21T09:07:09;99451.56;;;23.13;56.83
63552;BME280;49698;48.072;7.800;2022-08-21T09:09:48;99442.78;;;23.27;56.39
63552;BME280;49698;48.072;7.800;2022-08-21T09:12:29;99436.72;;;23.41;55.93
63552;BME280;49698;48.072;7.800;2022-08-21T09:15:09;99434.09;;;23.48;56.15
63552;BME280;49698;48.072;7.800;2022-08-21T09:18:11;99434.22;;;23.55;55.41
63552;BME280;49698;48.072;7.800;2022-08-21T09:20:48;99427.22;;;23.61;55.34
63552;BME280;49698;48.072;7.800;2022-08-21T09:23:26;99421.00;;;23.64;55.12
63552;BME280;49698;48.072;7.800;2022-08-21T09:26:05;99419.97;;;23.73;55.12
63552;BME280;49698;48.072;7.800;2022-08-21T09:28:35;99416.94;;;23.78;54.58
63552;BME280;49698;48.072;7.800;2022-08-21T09:31:07;99415.31;;;23.77;54.12
63552;BME280;49698;48.072;7.800;2022-08-21T09:33:35;99423.16;;;23.75;53.99
63552;BME280;49698;48.072;7.800;2022-08-21T09:36:04;99411.50;;;23.85;53.48
63552;BME280;49698;48.072;7.800;2022-08-21T09:38:33;99415.63;;;23.98;53.11
63552;BME280;49698;48.072;7.800;2022-08-21T09:41:07;99413.81;;;24.09;52.51
63552;BME280;49698;48.072;7.800;2022-08-21T09:43:37;99401.66;;;24.10;52.06
63552;BME280;49698;48.072;7.800;2022-08-21T09:46:10;99402.47;;;24.14;52.26
63552;BME280;49698;48.072;7.800;2022-08-21T09:48:41;99410.47;;;24.27;51.81
63552;BME280;49698;48.072;7.800;2022-08-21T09:51:12;99409.09;;;24.40;51.08
63552;BME280;49698;48.072;7.800;2022-08-21T09:53:46;99405.22;;;24.45;50.60
63552;BME280;49698;48.072;7.800;2022-08-21T09:56:26;99397.91;;;24.56;50.43
63552;BME280;49698;48.072;7.800;2022-08-21T09:59:15;99398.75;;;24.63;50.08
63552;BME280;49698;48.072;7.800;2022-08-21T10:01:44;99387.88;;;24.74;50.05
63552;BME280;49698;48.072;7.800;2022-08-21T10:04:14;99388.75;;;24.85;49.75
63552;BME280;49698;48.072;7.800;2022-08-21T10:06:42;99392.34;;;24.93;49.27
63552;BME280;49698;48.072;7.800;2022-08-21T10:09:13;99391.53;;;24.89;48.87
63552;BME280;49698;48.072;7.800;2022-08-21T10:11:51;99387.59;;;24.86;49.16
63552;BME280;49698;48.072;7.800;2022-08-21T10:14:33;99382.19;;;25.01;48.93
63552;BME280;49698;48.072;7.800;2022-08-21T10:17:12;99377.22;;;25.10;48.43
63552;BME280;49698;48.072;7.800;2022-08-21T10:19:49;99375.34;;;25.21;48.40
63552;BME280;49698;48.072;7.800;2022-08-21T10:22:32;99377.00;;;25.33;48.19
63552;BME280;49698;48.072;7.800;2022-08-21T10:25:10;99370.41;;;25.48;48.15
63552;BME280;49698;48.072;7.800;2022-08-21T10:27:51;99365.34;;;25.57;47.97
63552;BME280;49698;48.072;7.800;2022-08-21T10:30:30;99365.38;;;25.65;47.48
63552;BME280;49698;48.072;7.800;2022-08-21T10:33:23;99366.97;;;25.69;46.89
63552;BME280;49698;48.072;7.800;2022-08-21T10:36:00;99359.13;;;25.71;46.70
63552;BME280;49698;48.072;7.800;2022-08-21T10:38:49;99358.34;;;25.74;46.41
63552;BME280;49698;48.072;7.800;2022-08-21T10:41:44;99361.59;;;25.87;45.87
63552;BME280;49698;48.072;7.800;2022-08-21T10:44:25;99360.03;;;25.90;45.39
63552;BME280;49698;48.072;7.800;2022-08-21T10:47:01;99367.13;;;25.91;44.77
63552;BME280;49698;48.072;7.800;2022-08-21T10:49:39;99353.72;;;25.89;44.43
63552;BME280;49698;48.072;7.800;2022-08-21T10:52:33;99357.25;;;25.86;43.75
63552;BME280;49698;48.072;7.800;2022-08-21T10:55:08;99363.94;;;25.85;43.28
63552;BME280;49698;48.072;7.800;2022-08-21T10:57:41;99363.16;;;25.88;43.06
63552;BME280;49698;48.072;7.800;2022-08-21T11:00:15;99357.72;;;25.99;43.04
63552;BME280;49698;48.072;7.800;2022-08-21T11:02:49;99359.66;;;26.02;42.99
63552;BME280;49698;48.072;7.800;2022-08-21T11:05:24;99353.78;;;26.00;42.59
63552;BME280;49698;48.072;7.800;2022-08-21T11:07:55;99356.13;;;26.01;42.70
63552;BME280;49698;48.072;7.800;2022-08-21T11:10:27;99345.91;;;26.05;42.50
63552;BME280;49698;48.072;7.800;2022-08-21T11:13:01;99355.38;;;26.08;42.34
63552;BME280;49698;48.072;7.800;2022-08-21T11:15:37;99345.97;;;26.16;42.32
63552;BME280;49698;48.072;7.800;2022-08-21T11:18:18;99335.38;;;26.22;42.56
63552;BME280;49698;48.072;7.800;2022-08-21T11:20:54;99344.03;;;26.34;42.19
63552;BME280;49698;48.072;7.800;2022-08-21T11:23:29;99339.31;;;26.39;42.09
63552;BME280;49698;48.072;7.800;2022-08-21T11:26:02;99342.91;;;26.46;41.95
63552;BME280;49698;48.072;7.800;2022-08-21T11:28:36;99343.31;;;26.55;41.45
63552;BME280;49698;48.072;7.800;2022-08-21T11:31:18;99327.56;;;26.67;41.35
63552;BME280;49698;48.072;7.800;2022-08-21T11:33:59;99337.84;;;26.84;41.12
63552;BME280;49698;48.072;7.800;2022-08-21T11:36:37;99327.97;;;26.97;40.76
63552;BME280;49698;48.072;7.800;2022-08-21T11:39:16;99333.09;;;27.27;40.28
63552;BME280;49698;48.072;7.800;2022-08-21T11:41:52;99329.09;;;27.53;39.72
63552;BME280;49698;48.072;7.800;2022-08-21T11:44:28;99328.66;;;27.73;39.16
63552;BME280;49698;48.072;7.800;2022-08-21T11:47:07;99331.81;;;27.75;38.83
63552;BME280;49698;48.072;7.800;2022-08-21T11:49:49;99321.94;;;27.70;38.91
63552;BME280;49698;48.072;7.800;2022-08-21T11:52:23;99319.97;;;27.64;39.30
63552;BME280;49698;48.072;7.800;2022-08-21T11:54:57;99314.09;;;27.62;39.10
63552;BME280;49698;48.072;7.800;2022-08-21T11:57:29;99310.94;;;27.60;39.30
63552;BME280;49698;48.072;7.800;2022-08-21T12:00:03;99311.34;;;27.54;39.31
63552;BME280;49698;48.072;7.800;2022-08-21T12:02:45;99314.53;;;27.49;39.17
63552;BME280;49698;48.072;7.800;2022-08-21T12:05:24;99305.88;;;27.37;39.29
63552;BME280;49698;48.072;7.800;2022-08-21T12:08:04;99309.06;;;27.21;39.11
63552;BME280;49698;48.072;7.800;2022-08-21T12:10:34;99297.22;;;27.10;39.35
63552;BME280;49698;48.072;7.800;2022-08-21T12:13:08;99293.31;;;27.03;40.09
63552;BME280;49698;48.072;7.800;2022-08-21T12:15:38;99305.53;;;26.99;40.06
63552;BME280;49698;48.072;7.800;2022-08-21T12:18:21;99297.63;;;26.90;39.77
63552;BME280;49698;48.072;7.800;2022-08-21T12:21:05;99295.28;;;26.89;40.08
63552;BME280;49698;48.072;7.800;2022-08-21T12:23:44;99297.25;;;26.88;40.09
63552;BME280;49698;48.072;7.800;2022-08-21T12:26:24;99297.25;;;26.81;40.34
63552;BME280;49698;48.072;7.800;2022-08-21T12:29:05;99298.44;;;26.66;40.59
63552;BME280;49698;48.072;7.800;2022-08-21T12:31:35;99294.91;;;26.62;40.91
63552;BME280;49698;48.072;7.800;2022-08-21T12:34:05;99294.09;;;26.61;41.11
63552;BME280;49698;48.072;7.800;2022-08-21T12:36:42;99300.00;;;26.67;41.04
63552;BME280;49698;48.072;7.800;2022-08-21T12:39:14;99294.91;;;26.69;40.47
63552;BME280;49698;48.072;7.800;2022-08-21T12:41:48;99286.63;;;26.62;40.11
63552;BME280;49698;48.072;7.800;2022-08-21T12:44:30;99291.34;;;26.65;39.74
63552;BME280;49698;48.072;7.800;2022-08-21T12:47:03;99290.16;;;26.66;39.57
63552;BME280;49698;48.072;7.800;2022-08-21T12:49:35;99279.91;;;26.63;39.83
63552;BME280;49698;48.072;7.800;2022-08-21T12:52:09;99281.50;;;26.64;39.97
63552;BME280;49698;48.072;7.800;2022-08-21T12:54:41;99294.13;;;26.65;40.07
63552;BME280;49698;48.072;7.800;2022-08-21T12:57:19;99285.44;;;26.70;40.01
63552;BME280;49698;48.072;7.800;2022-08-21T12:59:53;99285.44;;;26.70;39.63
63552;BME280;49698;48.072;7.800;2022-08-21T13:02:25;99286.22;;;26.70;39.84
63552;BME280;49698;48.072;7.800;2022-08-21T13:04:55;99285.44;;;26.77;39.83
63552;BME280;49698;48.072;7.800;2022-08-21T13:07:28;99281.50;;;26.81;39.67
63552;BME280;49698;48.072;7.800;2022-08-21T13:09:59;99283.84;;;26.83;39.50
63552;BME280;49698;48.072;7.800;2022-08-21T13:12:28;99282.28;;;26.86;39.72
63552;BME280;49698;48.072;7.800;2022-08-21T13:14:59;99281.09;;;26.83;39.47
63552;BME280;49698;48.072;7.800;2022-08-21T13:17:31;99277.94;;;26.81;39.37
63552;BME280;49698;48.072;7.800;2022-08-21T13:20:06;99278.31;;;26.83;39.80
63552;BME280;49698;48.072;7.800;2022-08-21T13:22:40;99271.25;;;26.82;39.65